sensor_id;sensor_type;location;lat;lon;timestamp;temperature;humidity
15819;DHT22;8010;53.986;12.106;2023-01-01T00:00:41;14.30;99.90
15819;DHT22;8010;53.986;12.106;2023-01-01T00:03:07;17.60;99.90
15819;DHT22;8010;53.986;12.106;2023-01-01T00:05:32;14.30;99.90
15819;DHT22;8010;53.986;12.106;2023-01-01T00:07:58;14.40;99.90
15819;DHT22;8010;53.986;12.106;2023-01-01T00:10:23;14.40;99.90
15819;DHT22;8010;53.986;12.106;2023-01-01T00:12:59;14.30;99.90
15819;DHT22;8010;53.986;12.106;2023-01-01T00:15:25;14.50;99.90
15819;DHT22;8010;53.986;12.106;2023-01-01T00:17:52;14.40;99.90
15819;DHT22;8010;53.986;12.106;2023-01-01T00:20:18;14.40;99.90
15819;DHT22;8010;53.986;12.106;2023-01-01T00:22:43;14.30;99.90
15819;DHT22;8010;53.986;12.106;2023-01-01T00:25:10;15.40;99.90
15819;DHT22;8010;53.986;12.106;2023-01-01T00:27:40;14.40;99.90
15819;DHT22;8010;53.986;12.106;2023-01-01T00:30:07;14.30;99.90
15819;DHT22;8010;53.986;12.106;2023-01-01T00:32:33;14.30;99.90
15819;DHT22;8010;53.986;12.106;2023-01-01T00:34:59;14.30;99.90
15819;DHT22;8010;53.986;12.106;2023-01-01T00:37:27;14.30;99.90
15819;DHT22;8010;53.986;12.106;2023-01-01T00:39:52;14.30;99.90
15819;DHT22;8010;53.986;12.106;2023-01-01T00:42:18;14.30;99.90
15819;DHT22;8010;53.986;12.106;2023-01-01T00:44:44;14.30;99.90
15819;DHT22;8010;53.986;12.106;2023-01-01T00:47:09;14.40;99.90
15819;DHT22;8010;53.986;12.106;2023-01-01T00:49:35;14.50;99.90
15819;DHT22;8010;53.986;12.106;2023-01-01T00:52:00;17.00;99.90
15819;DHT22;8010;53.986;12.106;2023-01-01T00:54:26;14.50;99.90
15819;DHT22;8010;53.986;12.106;2023-01-01T00:56:51;14.50;99.90
15819;DHT22;8010;53.986;12.106;2023-01-01T00:59:17;14.50;99.90
15819;DHT22;8010;53.986;12.106;2023-01-01T01:01:42;14.50;99.90
15819;DHT22;8010;53.986;12.106;2023-01-01T01:04:08;15.00;99.90
15819;DHT22;8010;53.986;12.106;2023-01-01T01:06:34;14.50;99.90
15819;DHT22;8010;53.986;12.106;2023-01-01T01:09:00;14.50;99.90
15819;DHT22;8010;53.986;12.106;2023-01-01T01:11:25;14.60;99.90
15819;DHT22;8010;53.986;12.106;2023-01-01T01:13:53;14.60;99.90
15819;DHT22;8010;53.986;12.106;2023-01-01T01:16:21;14.60;99.90
15819;DHT22;8010;53.986;12.106;2023-01-01T01:18:50;14.70;99.90
15819;DHT22;8010;53.986;12.106;2023-01-01T01:21:18;14.70;99.90
15819;DHT22;8010;53.986;12.106;2023-01-01T01:23:44;14.70;99.90
15819;DHT22;8010;53.986;12.106;2023-01-01T01:26:12;14.80;99.90
15819;DHT22;8010;53.986;12.106;2023-01-01T01:28:39;14.80;99.90
15819;DHT22;8010;53.986;12.106;2023-01-01T01:31:05;14.80;99.90
15819;DHT22;8010;53.986;12.106;2023-01-01T01:33:31;14.80;99.90
15819;DHT22;8010;53.986;12.106;2023-01-01T01:35:58;14.80;99.90
15819;DHT22;8010;53.986;12.106;2023-01-01T01:38:24;14.80;99.90
15819;DHT22;8010;53.986;12.106;2023-01-01T01:40:50;14.80;99.90
15819;DHT22;8010;53.986;12.106;2023-01-01T01:43:49;14.90;99.90
15819;DHT22;8010;53.986;12.106;2023-01-01T01:46:32;15.10;99.90
15819;DHT22;8010;53.986;12.106;2023-01-01T01:49:03;14.80;99.90
15819;DHT22;8010;53.986;12.106;2023-01-01T01:51:33;14.80;99.90
15819;DHT22;8010;53.986;12.106;2023-01-01T01:54:04;15.60;99.90
15819;DHT22;8010;53.986;12.106;2023-01-01T01:56:44;16.10;99.90
15819;DHT22;8010;53.986;12.106;2023-01-01T01:59:11;14.80;99.90
15819;DHT22;8010;53.986;12.106;2023-01-01T02:01:37;14.90;99.90
15819;DHT22;8010;53.986;12.106;2023-01-01T02:04:04;14.90;99.90
15819;DHT22;8010;53.986;12.106;2023-01-01T02:06:31;14.90;99.90
15819;DHT22;8010;53.986;12.106;2023-01-01T02:08:59;15.20;99.90
15819;DHT22;8010;53.986;12.106;2023-01-01T02:11:26;14.90;99.90
15819;DHT22;8010;53.986;12.106;2023-01-01T02:13:53;15.00;99.90
15819;DHT22;8010;53.986;12.106;2023-01-01T02:16:28;15.00;99.90
15819;DHT22;8010;53.986;12.106;2023-01-01T02:21:51;15.00;99.90
15819;DHT22;8010;53.986;12.106;2023-01-01T02:24:42;15.00;99.90
15819;DHT22;8010;53.986;12.106;2023-01-01T02:27:47;15.10;99.90
15819;DHT22;8010;53.986;12.106;2023-01-01T02:30:15;15.10;99.90
15819;DHT22;8010;53.986;12.106;2023-01-01T02:33:02;15.10;99.90
15819;DHT22;8010;53.986;12.106;2023-01-01T02:35:36;15.10;99.90
15819;DHT22;8010;53.986;12.106;2023-01-01T02:38:24;15.10;99.90
15819;DHT22;8010;53.986;12.106;2023-01-01T02:40:54;15.00;99.90
15819;DHT22;8010;53.986;12.106;2023-01-01T02:43:22;15.10;99.90
15819;DHT22;8010;53.986;12.106;2023-01-01T02:45:48;15.00;99.90
15819;DHT22;8010;53.986;12.106;2023-01-01T02:51:03;15.00;99.90
15819;DHT22;8010;53.986;12.106;2023-01-01T02:53:36;15.00;99.90
15819;DHT22;8010;53.986;12.106;2023-01-01T02:56:22;15.00;99.90
15819;DHT22;8010;53.986;12.106;2023-01-01T03:01:58;15.00;99.90
15819;DHT22;8010;53.986;12.106;2023-01-01T03:07:26;15.00;99.90
15819;DHT22;8010;53.986;12.106;2023-01-01T03:10:00;15.00;99.90
15819;DHT22;8010;53.986;12.106;2023-01-01T03:12:33;15.00;99.90
15819;DHT22;8010;53.986;12.106;2023-01-01T03:15:28;15.00;99.90
15819;DHT22;8010;53.986;12.106;2023-01-01T03:20:25;15.00;99.90
15819;DHT22;8010;53.986;12.106;2023-01-01T03:22:52;15.00;99.90
15819;DHT22;8010;53.986;12.106;2023-01-01T03:25:23;15.00;99.90
15819;DHT22;8010;53.986;12.106;2023-01-01T03:27:52;15.00;99.90
15819;DHT22;8010;53.986;12.106;2023-01-01T03:30:22;15.00;99.90
15819;DHT22;8010;53.986;12.106;2023-01-01T03:32:54;15.00;99.90
15819;DHT22;8010;53.986;12.106;2023-01-01T03:35:49;15.00;99.90
15819;DHT22;8010;53.986;12.106;2023-01-01T03:38:20;15.00;99.90
15819;DHT22;8010;53.986;12.106;2023-01-01T03:40:50;14.90;99.90
15819;DHT22;8010;53.986;12.106;2023-01-01T03:45:53;14.80;99.90
15819;DHT22;8010;53.986;12.106;2023-01-01T03:48:19;14.80;99.90
15819;DHT22;8010;53.986;12.106;2023-01-01T03:50:58;14.80;99.90
15819;DHT22;8010;53.986;12.106;2023-01-01T03:53:40;14.80;99.90
15819;DHT22;8010;53.986;12.106;2023-01-01T04:01:43;14.80;99.90
15819;DHT22;8010;53.986;12.106;2023-01-01T04:04:10;14.90;99.90
15819;DHT22;8010;53.986;12.106;2023-01-01T04:06:36;15.00;99.90
15819;DHT22;8010;53.986;12.106;2023-01-01T04:09:03;15.00;99.90
15819;DHT22;8010;53.986;12.106;2023-01-01T04:11:33;15.00;99.90
15819;DHT22;8010;53.986;12.106;2023-01-01T04:14:29;15.10;99.90
15819;DHT22;8010;53.986;12.106;2023-01-01T04:16:55;15.10;99.90
15819;DHT22;8010;53.986;12.106;2023-01-01T04:19:21;15.10;99.90
15819;DHT22;8010;53.986;12.106;2023-01-01T04:21:47;15.00;99.90
15819;DHT22;8010;53.986;12.106;2023-01-01T04:24:12;15.00;99.90
15819;DHT22;8010;53.986;12.106;2023-01-01T04:26:39;15.00;99.90
15819;DHT22;8010;53.986;12.106;2023-01-01T04:29:05;15.00;99.90
15819;DHT22;8010;53.986;12.106;2023-01-01T04:31:30;15.00;99.90
15819;DHT22;8010;53.986;12.106;2023-01-01T04:33:56;15.00;99.90
15819;DHT22;8010;53.986;12.106;2023-01-01T04:36:21;15.00;99.90
15819;DHT22;8010;53.986;12.106;2023-01-01T04:38:47;15.00;99.90
15819;DHT22;8010;53.986;12.106;2023-01-01T04:41:12;15.00;99.90
15819;DHT22;8010;53.986;12.106;2023-01-01T04:43:38;14.90;99.90
15819;DHT22;8010;53.986;12.106;2023-01-01T04:46:04;14.80;99.90
15819;DHT22;8010;53.986;12.106;2023-01-01T04:48:30;14.80;99.90
15819;DHT22;8010;53.986;12.106;2023-01-01T04:51:01;14.80;99.90
15819;DHT22;8010;53.986;12.106;2023-01-01T04:53:29;14.70;99.90
15819;DHT22;8010;53.986;12.106;2023-01-01T04:55:55;14.70;99.90
15819;DHT22;8010;53.986;12.106;2023-01-01T04:58:21;14.70;99.90
15819;DHT22;8010;53.986;12.106;2023-01-01T05:00:50;14.60;99.90
15819;DHT22;8010;53.986;12.106;2023-01-01T05:03:17;14.50;99.90
15819;DHT22;8010;53.986;12.106;2023-01-01T05:05:42;14.50;99.90
15819;DHT22;8010;53.986;12.106;2023-01-01T05:08:08;14.50;99.90
15819;DHT22;8010;53.986;12.106;2023-01-01T05:10:34;14.60;99.90
15819;DHT22;8010;53.986;12.106;2023-01-01T05:12:59;14.60;99.90
15819;DHT22;8010;53.986;12.106;2023-01-01T05:15:25;14.60;99.90
15819;DHT22;8010;53.986;12.106;2023-01-01T05:17:50;14.50;99.90
15819;DHT22;8010;53.986;12.106;2023-01-01T05:20:16;14.50;99.90
15819;DHT22;8010;53.986;12.106;2023-01-01T05:22:41;14.50;99.90
15819;DHT22;8010;53.986;12.106;2023-01-01T05:25:09;17.00;99.90
15819;DHT22;8010;53.986;12.106;2023-01-01T05:27:35;14.40;99.90
15819;DHT22;8010;53.986;12.106;2023-01-01T05:30:00;14.40;99.90
15819;DHT22;8010;53.986;12.106;2023-01-01T05:32:26;14.30;99.90
15819;DHT22;8010;53.986;12.106;2023-01-01T05:34:52;14.40;99.90
15819;DHT22;8010;53.986;12.106;2023-01-01T05:37:18;14.40;99.90
15819;DHT22;8010;53.986;12.106;2023-01-01T05:39:44;14.40;99.90
15819;DHT22;8010;53.986;12.106;2023-01-01T05:42:09;14.40;99.90
15819;DHT22;8010;53.986;12.106;2023-01-01T05:44:35;14.40;99.90
15819;DHT22;8010;53.986;12.106;2023-01-01T05:47:00;14.40;99.90
15819;DHT22;8010;53.986;12.106;2023-01-01T05:49:26;14.40;99.90
15819;DHT22;8010;53.986;12.106;2023-01-01T05:51:52;14.50;99.90
15819;DHT22;8010;53.986;12.106;2023-01-01T05:54:18;14.40;99.90
15819;DHT22;8010;53.986;12.106;2023-01-01T05:56:43;14.40;99.90
15819;DHT22;8010;53.986;12.106;2023-01-01T05:59:09;14.50;99.90
15819;DHT22;8010;53.986;12.106;2023-01-01T06:01:35;14.50;99.90
15819;DHT22;8010;53.986;12.106;2023-01-01T06:04:00;16.90;99.90
15819;DHT22;8010;53.986;12.106;2023-01-01T06:06:29;14.40;99.90
15819;DHT22;8010;53.986;12.106;2023-01-01T06:08:57;14.40;99.90
15819;DHT22;8010;53.986;12.106;2023-01-01T06:11:23;14.40;99.90
15819;DHT22;8010;53.986;12.106;2023-01-01T06:13:57;14.50;99.90
15819;DHT22;8010;53.986;12.106;2023-01-01T06:16:23;14.50;99.90
15819;DHT22;8010;53.986;12.106;2023-01-01T06:18:49;14.40;99.90
15819;DHT22;8010;53.986;12.106;2023-01-01T06:21:20;14.40;99.90
15819;DHT22;8010;53.986;12.106;2023-01-01T06:23:46;14.40;99.90
15819;DHT22;8010;53.986;12.106;2023-01-01T06:26:23;14.40;99.90
15819;DHT22;8010;53.986;12.106;2023-01-01T06:28:49;14.40;99.90
15819;DHT22;8010;53.986;12.106;2023-01-01T06:31:17;14.50;99.90
15819;DHT22;8010;53.986;12.106;2023-01-01T06:33:43;14.50;99.90
15819;DHT22;8010;53.986;12.106;2023-01-01T06:36:11;14.50;99.90
15819;DHT22;8010;53.986;12.106;2023-01-01T06:38:39;14.50;99.90
15819;DHT22;8010;53.986;12.106;2023-01-01T06:41:08;14.50;99.90
15819;DHT22;8010;53.986;12.106;2023-01-01T06:43:35;14.40;99.90
15819;DHT22;8010;53.986;12.106;2023-01-01T06:46:06;15.00;99.90
15819;DHT22;8010;53.986;12.106;2023-01-01T06:48:34;14.50;99.90
15819;DHT22;8010;53.986;12.106;2023-01-01T06:51:17;14.60;99.90
15819;DHT22;8010;53.986;12.106;2023-01-01T06:53:44;14.70;99.90
15819;DHT22;8010;53.986;12.106;2023-01-01T06:56:10;14.80;99.90
15819;DHT22;8010;53.986;12.106;2023-01-01T06:58:36;14.80;99.90
15819;DHT22;8010;53.986;12.106;2023-01-01T07:01:11;14.70;99.90
15819;DHT22;8010;53.986;12.106;2023-01-01T07:03:38;14.70;99.90
15819;DHT22;8010;53.986;12.106;2023-01-01T07:06:05;14.80;99.90
15819;DHT22;8010;53.986;12.106;2023-01-01T07:08:31;16.70;99.90
15819;DHT22;8010;53.986;12.106;2023-01-01T07:10:56;14.90;99.90
15819;DHT22;8010;53.986;12.106;2023-01-01T07:13:26;14.90;99.90
15819;DHT22;8010;53.986;12.106;2023-01-01T07:15:52;14.90;99.90
15819;DHT22;8010;53.986;12.106;2023-01-01T07:18:19;14.80;99.90
15819;DHT22;8010;53.986;12.106;2023-01-01T07:20:51;14.80;99.90
15819;DHT22;8010;53.986;12.106;2023-01-01T07:23:17;14.70;99.90
15819;DHT22;8010;53.986;12.106;2023-01-01T07:25:43;14.70;99.90
15819;DHT22;8010;53.986;12.106;2023-01-01T07:28:09;14.60;99.90
15819;DHT22;8010;53.986;12.106;2023-01-01T07:30:34;14.60;99.90
15819;DHT22;8010;53.986;12.106;2023-01-01T07:33:00;14.60;99.90
15819;DHT22;8010;53.986;12.106;2023-01-01T07:35:25;14.60;99.90
15819;DHT22;8010;53.986;12.106;2023-01-01T07:37:51;14.60;99.90
15819;DHT22;8010;53.986;12.106;2023-01-01T07:40:16;14.70;99.90
15819;DHT22;8010;53.986;12.106;2023-01-01T07:42:42;14.70;99.90
15819;DHT22;8010;53.986;12.106;2023-01-01T07:45:10;14.80;99.90
15819;DHT22;8010;53.986;12.106;2023-01-01T07:47:36;14.80;99.90
15819;DHT22;8010;53.986;12.106;2023-01-01T07:50:01;14.80;99.90
15819;DHT22;8010;53.986;12.106;2023-01-01T07:52:27;14.70;99.90
15819;DHT22;8010;53.986;12.106;2023-01-01T07:54:53;14.70;99.90
15819;DHT22;8010;53.986;12.106;2023-01-01T07:57:18;14.70;99.90
15819;DHT22;8010;53.986;12.106;2023-01-01T07:59:44;14.70;99.90
15819;DHT22;8010;53.986;12.106;2023-01-01T08:02:11;14.80;99.90
15819;DHT22;8010;53.986;12.106;2023-01-01T08:04:37;14.80;99.90
15819;DHT22;8010;53.986;12.106;2023-01-01T08:07:03;14.80;99.90
15819;DHT22;8010;53.986;12.106;2023-01-01T08:09:29;14.80;99.90
15819;DHT22;8010;53.986;12.106;2023-01-01T08:11:54;14.80;99.90
15819;DHT22;8010;53.986;12.106;2023-01-01T08:14:23;14.80;99.90
15819;DHT22;8010;53.986;12.106;2023-01-01T08:16:48;15.60;99.90
15819;DHT22;8010;53.986;12.106;2023-01-01T08:19:14;14.90;99.90
15819;DHT22;8010;53.986;12.106;2023-01-01T08:21:39;14.90;99.90
15819;DHT22;8010;53.986;12.106;2023-01-01T08:24:05;15.00;99.90
15819;DHT22;8010;53.986;12.106;2023-01-01T08:26:33;14.90;99.90
15819;DHT22;8010;53.986;12.106;2023-01-01T08:29:02;14.90;99.90
15819;DHT22;8010;53.986;12.106;2023-01-01T08:31:28;14.90;99.90
15819;DHT22;8010;53.986;12.106;2023-01-01T08:33:53;14.90;99.90
15819;DHT22;8010;53.986;12.106;2023-01-01T08:36:19;14.90;99.90
15819;DHT22;8010;53.986;12.106;2023-01-01T08:38:45;14.80;99.90
15819;DHT22;8010;53.986;12.106;2023-01-01T08:41:11;14.70;99.90
15819;DHT22;8010;53.986;12.106;2023-01-01T08:43:36;14.80;99.90
15819;DHT22;8010;53.986;12.106;2023-01-01T08:46:02;14.80;99.90
15819;DHT22;8010;53.986;12.106;2023-01-01T08:48:28;14.80;99.90
15819;DHT22;8010;53.986;12.106;2023-01-01T08:50:54;14.80;99.90
15819;DHT22;8010;53.986;12.106;2023-01-01T08:53:20;14.80;99.90
15819;DHT22;8010;53.986;12.106;2023-01-01T08:55:59;14.70;99.90
15819;DHT22;8010;53.986;12.106;2023-01-01T08:58:25;14.60;99.90
15819;DHT22;8010;53.986;12.106;2023-01-01T09:00:52;14.60;99.90
15819;DHT22;8010;53.986;12.106;2023-01-01T09:03:17;14.70;99.90
15819;DHT22;8010;53.986;12.106;2023-01-01T09:05:43;14.60;99.90
15819;DHT22;8010;53.986;12.106;2023-01-01T09:08:13;14.50;99.90
15819;DHT22;8010;53.986;12.106;2023-01-01T09:10:39;14.60;99.90
15819;DHT22;8010;53.986;12.106;2023-01-01T09:13:07;14.50;99.90
15819;DHT22;8010;53.986;12.106;2023-01-01T09:15:32;14.50;99.90
15819;DHT22;8010;53.986;12.106;2023-01-01T09:17:58;14.50;99.90
15819;DHT22;8010;53.986;12.106;2023-01-01T09:20:23;14.50;99.90
15819;DHT22;8010;53.986;12.106;2023-01-01T09:22:49;14.50;99.90
15819;DHT22;8010;53.986;12.106;2023-01-01T09:25:15;14.50;99.90
15819;DHT22;8010;53.986;12.106;2023-01-01T09:27:40;14.50;99.90
15819;DHT22;8010;53.986;12.106;2023-01-01T09:30:07;14.60;99.90
15819;DHT22;8010;53.986;12.106;2023-01-01T09:32:33;14.70;99.90
15819;DHT22;8010;53.986;12.106;2023-01-01T09:34:59;14.70;99.90
15819;DHT22;8010;53.986;12.106;2023-01-01T09:37:25;14.80;99.90
15819;DHT22;8010;53.986;12.106;2023-01-01T09:39:51;14.90;99.90
15819;DHT22;8010;53.986;12.106;2023-01-01T09:42:39;15.00;99.90
15819;DHT22;8010;53.986;12.106;2023-01-01T09:45:23;15.00;99.90
15819;DHT22;8010;53.986;12.106;2023-01-01T09:47:59;15.00;99.90
15819;DHT22;8010;53.986;12.106;2023-01-01T09:50:37;14.90;99.90
15819;DHT22;8010;53.986;12.106;2023-01-01T09:53:11;14.90;99.90
15819;DHT22;8010;53.986;12.106;2023-01-01T09:55:45;14.90;99.90
15819;DHT22;8010;53.986;12.106;2023-01-01T09:58:12;14.90;99.90
15819;DHT22;8010;53.986;12.106;2023-01-01T10:00:41;14.90;99.90
15819;DHT22;8010;53.986;12.106;2023-01-01T10:03:24;14.90;99.90
15819;DHT22;8010;53.986;12.106;2023-01-01T10:08:47;15.10;99.90
15819;DHT22;8010;53.986;12.106;2023-01-01T10:13:48;15.00;99.90
15819;DHT22;8010;53.986;12.106;2023-01-01T10:18:58;15.00;99.90
15819;DHT22;8010;53.986;12.106;2023-01-01T10:21:33;14.90;99.90
15819;DHT22;8010;53.986;12.106;2023-01-01T10:26:36;14.90;99.90
15819;DHT22;8010;53.986;12.106;2023-01-01T10:29:10;14.90;99.90
15819;DHT22;8010;53.986;12.106;2023-01-01T10:31:41;14.80;99.90
15819;DHT22;8010;53.986;12.106;2023-01-01T10:34:24;14.80;99.90
15819;DHT22;8010;53.986;12.106;2023-01-01T10:36:54;14.70;99.90
15819;DHT22;8010;53.986;12.106;2023-01-01T10:39:20;14.70;99.90
15819;DHT22;8010;53.986;12.106;2023-01-01T10:41:46;14.70;99.90
15819;DHT22;8010;53.986;12.106;2023-01-01T10:44:29;14.70;99.90
15819;DHT22;8010;53.986;12.106;2023-01-01T10:46:57;14.60;99.90
15819;DHT22;8010;53.986;12.106;2023-01-01T10:49:22;14.70;99.90
15819;DHT22;8010;53.986;12.106;2023-01-01T10:51:50;14.60;99.90
15819;DHT22;8010;53.986;12.106;2023-01-01T10:54:35;14.70;99.90
15819;DHT22;8010;53.986;12.106;2023-01-01T10:59:45;14.70;99.90
15819;DHT22;8010;53.986;12.106;2023-01-01T11:02:21;14.70;99.90
15819;DHT22;8010;53.986;12.106;2023-01-01T11:04:48;14.60;99.90
15819;DHT22;8010;53.986;12.106;2023-01-01T11:07:20;14.60;99.90
15819;DHT22;8010;53.986;12.106;2023-01-01T11:09:49;14.60;99.90
15819;DHT22;8010;53.986;12.106;2023-01-01T11:12:20;14.50;99.90
15819;DHT22;8010;53.986;12.106;2023-01-01T11:14:51;14.50;99.90
15819;DHT22;8010;53.986;12.106;2023-01-01T11:17:22;14.50;99.90
15819;DHT22;8010;53.986;12.106;2023-01-01T11:19:49;14.50;99.90
15819;DHT22;8010;53.986;12.106;2023-01-01T11:25:27;14.50;99.90
15819;DHT22;8010;53.986;12.106;2023-01-01T11:31:08;14.80;99.90
15819;DHT22;8010;53.986;12.106;2023-01-01T11:33:55;14.90;99.90
15819;DHT22;8010;53.986;12.106;2023-01-01T11:36:28;15.10;99.90
15819;DHT22;8010;53.986;12.106;2023-01-01T11:41:47;15.20;99.90
15819;DHT22;8010;53.986;12.106;2023-01-01T11:46:49;14.90;99.90
15819;DHT22;8010;53.986;12.106;2023-01-01T11:49:22;14.90;99.90
15819;DHT22;8010;53.986;12.106;2023-01-01T11:51:48;14.90;99.90
15819;DHT22;8010;53.986;12.106;2023-01-01T11:54:28;14.90;99.90
15819;DHT22;8010;53.986;12.106;2023-01-01T11:57:18;14.90;99.90
15819;DHT22;8010;53.986;12.106;2023-01-01T11:59:50;14.90;99.90
15819;DHT22;8010;53.986;12.106;2023-01-01T12:02:35;16.80;99.90
15819;DHT22;8010;53.986;12.106;2023-01-01T12:07:40;15.00;99.90
15819;DHT22;8010;53.986;12.106;2023-01-01T12:13:07;15.00;99.90
15819;DHT22;8010;53.986;12.106;2023-01-01T12:15:38;15.10;99.90
15819;DHT22;8010;53.986;12.106;2023-01-01T12:18:15;15.00;99.90
15819;DHT22;8010;53.986;12.106;2023-01-01T12:23:21;15.00;99.90
15819;DHT22;8010;53.986;12.106;2023-01-01T12:25:57;14.90;99.90
15819;DHT22;8010;53.986;12.106;2023-01-01T12:28:43;14.90;99.90
15819;DHT22;8010;53.986;12.106;2023-01-01T12:31:22;14.80;99.90
15819;DHT22;8010;53.986;12.106;2023-01-01T12:36:31;14.60;99.90
15819;DHT22;8010;53.986;12.106;2023-01-01T12:41:58;14.50;99.90
15819;DHT22;8010;53.986;12.106;2023-01-01T12:44:32;14.40;99.90
15819;DHT22;8010;53.986;12.106;2023-01-01T12:50:33;14.40;99.90
15819;DHT22;8010;53.986;12.106;2023-01-01T12:59:02;14.70;99.90
15819;DHT22;8010;53.986;12.106;2023-01-01T13:01:32;14.80;99.90
15819;DHT22;8010;53.986;12.106;2023-01-01T13:04:04;15.10;99.90
15819;DHT22;8010;53.986;12.106;2023-01-01T13:06:51;15.30;99.90
15819;DHT22;8010;53.986;12.106;2023-01-01T13:09:20;15.40;99.90
15819;DHT22;8010;53.986;12.106;2023-01-01T13:12:00;15.50;99.90
15819;DHT22;8010;53.986;12.106;2023-01-01T13:14:28;15.40;99.90
15819;DHT22;8010;53.986;12.106;2023-01-01T13:16:54;15.50;99.90
15819;DHT22;8010;53.986;12.106;2023-01-01T13:38:49;15.40;99.90
15819;DHT22;8010;53.986;12.106;2023-01-01T13:41:40;15.20;99.90
15819;DHT22;8010;53.986;12.106;2023-01-01T13:52:46;14.60;99.90
15819;DHT22;8010;53.986;12.106;2023-01-01T14:01:28;14.30;99.90
15819;DHT22;8010;53.986;12.106;2023-01-01T14:03:59;14.10;99.90
15819;DHT22;8010;53.986;12.106;2023-01-01T14:06:35;14.10;99.90
15819;DHT22;8010;53.986;12.106;2023-01-01T14:09:13;14.30;99.90
15819;DHT22;8010;53.986;12.106;2023-01-01T14:11:40;14.30;99.90
15819;DHT22;8010;53.986;12.106;2023-01-01T14:14:25;14.30;99.90
15819;DHT22;8010;53.986;12.106;2023-01-01T14:16:55;14.30;99.90
15819;DHT22;8010;53.986;12.106;2023-01-01T14:19:22;14.20;99.90
15819;DHT22;8010;53.986;12.106;2023-01-01T14:21:48;14.30;99.90
15819;DHT22;8010;53.986;12.106;2023-01-01T14:24:17;14.20;99.90
15819;DHT22;8010;53.986;12.106;2023-01-01T14:26:43;14.10;99.90
15819;DHT22;8010;53.986;12.106;2023-01-01T14:29:20;14.10;99.90
15819;DHT22;8010;53.986;12.106;2023-01-01T14:31:47;13.90;99.90
15819;DHT22;8010;53.986;12.106;2023-01-01T14:34:14;13.80;99.90
15819;DHT22;8010;53.986;12.106;2023-01-01T14:36:50;13.60;99.90
15819;DHT22;8010;53.986;12.106;2023-01-01T14:39:31;13.50;99.90
15819;DHT22;8010;53.986;12.106;2023-01-01T14:42:00;13.30;99.90
15819;DHT22;8010;53.986;12.106;2023-01-01T14:44:43;13.00;99.90
15819;DHT22;8010;53.986;12.106;2023-01-01T14:47:24;12.80;99.90
15819;DHT22;8010;53.986;12.106;2023-01-01T14:49:52;12.70;99.90
15819;DHT22;8010;53.986;12.106;2023-01-01T14:52:27;12.60;99.90
15819;DHT22;8010;53.986;12.106;2023-01-01T14:54:57;12.40;99.90
15819;DHT22;8010;53.986;12.106;2023-01-01T14:57:26;12.30;99.90
15819;DHT22;8010;53.986;12.106;2023-01-01T14:59:53;12.20;99.90
15819;DHT22;8010;53.986;12.106;2023-01-01T15:02:33;12.20;99.90
15819;DHT22;8010;53.986;12.106;2023-01-01T15:05:30;12.10;99.90
15819;DHT22;8010;53.986;12.106;2023-01-01T15:08:01;12.00;99.90
15819;DHT22;8010;53.986;12.106;2023-01-01T15:10:29;12.00;99.90
15819;DHT22;8010;53.986;12.106;2023-01-01T15:12:56;12.50;99.90
15819;DHT22;8010;53.986;12.106;2023-01-01T15:18:03;11.90;99.90
15819;DHT22;8010;53.986;12.106;2023-01-01T15:20:29;11.80;99.90
15819;DHT22;8010;53.986;12.106;2023-01-01T15:22:55;11.70;99.90
15819;DHT22;8010;53.986;12.106;2023-01-01T15:25:21;11.60;99.90
15819;DHT22;8010;53.986;12.106;2023-01-01T15:27:48;11.60;99.90
15819;DHT22;8010;53.986;12.106;2023-01-01T15:30:26;11.50;99.90
15819;DHT22;8010;53.986;12.106;2023-01-01T15:32:53;11.50;99.90
15819;DHT22;8010;53.986;12.106;2023-01-01T15:35:31;11.40;99.90
15819;DHT22;8010;53.986;12.106;2023-01-01T15:38:07;11.40;99.90
15819;DHT22;8010;53.986;12.106;2023-01-01T15:40:34;11.40;99.90
15819;DHT22;8010;53.986;12.106;2023-01-01T15:45:38;11.40;99.90
15819;DHT22;8010;53.986;12.106;2023-01-01T15:50:53;11.40;99.90
15819;DHT22;8010;53.986;12.106;2023-01-01T15:53:30;11.40;99.90
15819;DHT22;8010;53.986;12.106;2023-01-01T15:56:25;11.40;99.90
15819;DHT22;8010;53.986;12.106;2023-01-01T16:01:40;11.40;99.90
15819;DHT22;8010;53.986;12.106;2023-01-01T16:06:43;11.30;99.90
15819;DHT22;8010;53.986;12.106;2023-01-01T16:09:11;11.30;99.90
15819;DHT22;8010;53.986;12.106;2023-01-01T16:11:37;9.40;99.90
15819;DHT22;8010;53.986;12.106;2023-01-01T16:14:03;11.30;99.90
15819;DHT22;8010;53.986;12.106;2023-01-01T16:16:30;11.30;99.90
15819;DHT22;8010;53.986;12.106;2023-01-01T16:18:56;11.20;99.90
15819;DHT22;8010;53.986;12.106;2023-01-01T16:21:24;11.20;99.90
15819;DHT22;8010;53.986;12.106;2023-01-01T16:23:51;11.10;99.90
15819;DHT22;8010;53.986;12.106;2023-01-01T16:26:17;11.00;99.90
15819;DHT22;8010;53.986;12.106;2023-01-01T16:28:43;11.00;99.90
15819;DHT22;8010;53.986;12.106;2023-01-01T16:31:14;10.90;99.90
15819;DHT22;8010;53.986;12.106;2023-01-01T16:33:41;10.90;99.90
15819;DHT22;8010;53.986;12.106;2023-01-01T16:36:10;12.00;99.90
15819;DHT22;8010;53.986;12.106;2023-01-01T16:38:36;11.00;99.90
15819;DHT22;8010;53.986;12.106;2023-01-01T16:41:02;11.00;99.90
15819;DHT22;8010;53.986;12.106;2023-01-01T16:43:28;11.00;99.90
15819;DHT22;8010;53.986;12.106;2023-01-01T16:45:53;11.10;99.90
15819;DHT22;8010;53.986;12.106;2023-01-01T16:48:19;11.10;99.90
15819;DHT22;8010;53.986;12.106;2023-01-01T16:50:49;11.10;99.90
15819;DHT22;8010;53.986;12.106;2023-01-01T16:53:16;11.10;99.90
15819;DHT22;8010;53.986;12.106;2023-01-01T16:55:41;11.10;99.90
15819;DHT22;8010;53.986;12.106;2023-01-01T16:58:07;11.00;99.90
15819;DHT22;8010;53.986;12.106;2023-01-01T17:00:33;11.00;99.90
15819;DHT22;8010;53.986;12.106;2023-01-01T17:02:59;10.90;99.90
15819;DHT22;8010;53.986;12.106;2023-01-01T17:05:25;11.80;99.90
15819;DHT22;8010;53.986;12.106;2023-01-01T17:07:51;10.70;99.90
15819;DHT22;8010;53.986;12.106;2023-01-01T17:10:16;10.80;99.90
15819;DHT22;8010;53.986;12.106;2023-01-01T17:12:42;11.50;99.90
15819;DHT22;8010;53.986;12.106;2023-01-01T17:15:08;10.80;99.90
15819;DHT22;8010;53.986;12.106;2023-01-01T17:17:33;10.80;99.90
15819;DHT22;8010;53.986;12.106;2023-01-01T17:19:59;10.80;99.90
15819;DHT22;8010;53.986;12.106;2023-01-01T17:22:24;10.80;99.90
15819;DHT22;8010;53.986;12.106;2023-01-01T17:24:50;10.80;99.90
15819;DHT22;8010;53.986;12.106;2023-01-01T17:27:16;10.80;99.90
15819;DHT22;8010;53.986;12.106;2023-01-01T17:29:42;10.80;99.90
15819;DHT22;8010;53.986;12.106;2023-01-01T17:32:07;10.80;99.90
15819;DHT22;8010;53.986;12.106;2023-01-01T17:34:33;10.90;99.90
15819;DHT22;8010;53.986;12.106;2023-01-01T17:36:59;10.80;99.90
15819;DHT22;8010;53.986;12.106;2023-01-01T17:39:25;10.80;99.90
15819;DHT22;8010;53.986;12.106;2023-01-01T17:41:50;10.80;99.90